createdAt,value
2023-01-29T00:00:03.844Z,3.71
2023-01-29T00:02:33.599Z,3.61
2023-01-29T00:05:16.640Z,3.44
2023-01-29T00:07:50.084Z,3.49
2023-01-29T00:10:18.859Z,3.65
2023-01-29T00:12:47.185Z,3.55
2023-01-29T00:15:15.481Z,3.33
2023-01-29T00:17:45.190Z,3.24
2023-01-29T00:20:16.097Z,3.09
2023-01-29T00:22:44.589Z,3.21
2023-01-29T00:25:12.810Z,3.26
2023-01-29T00:27:41.049Z,3.19
2023-01-29T00:30:13.201Z,3.01
2023-01-29T00:32:42.020Z,2.56
2023-01-29T00:35:12.066Z,2.43
2023-01-29T00:37:40.350Z,2.50
2023-01-29T00:40:09.952Z,2.49
2023-01-29T00:42:56.851Z,2.57
2023-01-29T00:45:25.124Z,2.48
2023-01-29T00:47:53.402Z,2.52
2023-01-29T00:50:23.434Z,2.59
2023-01-29T00:52:51.977Z,2.75
2023-01-29T00:55:20.524Z,2.79
2023-01-29T00:57:49.078Z,3.03
2023-01-29T01:00:20.210Z,3.06
2023-01-29T01:03:05.987Z,3.37
2023-01-29T01:05:37.119Z,2.90
2023-01-29T01:08:26.078Z,2.74
2023-01-29T01:11:00.212Z,2.43
2023-01-29T01:13:28.551Z,2.45
2023-01-29T01:15:56.853Z,2.30
2023-01-29T01:18:25.106Z,2.35
2023-01-29T01:20:59.754Z,2.23
2023-01-29T01:23:28.329Z,2.29
2023-01-29T01:25:56.624Z,2.50
2023-01-29T01:28:24.916Z,2.50
2023-01-29T01:30:53.295Z,2.34
2023-01-29T01:33:21.993Z,2.49
2023-01-29T01:35:50.312Z,2.57
2023-01-29T01:38:19.990Z,2.47
2023-01-29T01:40:48.495Z,2.56
2023-01-29T01:43:16.768Z,2.68
2023-01-29T01:45:46.890Z,2.49
2023-01-29T01:48:20.340Z,2.90
2023-01-29T01:50:52.490Z,2.86
2023-01-29T01:53:25.418Z,2.67
2023-01-29T01:56:00.160Z,2.89
2023-01-29T01:58:33.338Z,2.92
2023-01-29T02:01:02.559Z,2.84
2023-01-29T02:03:52.998Z,2.98
2023-01-29T02:06:38.925Z,2.90
2023-01-29T02:09:31.707Z,3.04
2023-01-29T02:11:59.956Z,3.12
2023-01-29T02:14:28.590Z,3.05
2023-01-29T02:16:56.849Z,3.02
2023-01-29T02:19:40.000Z,2.62
2023-01-29T02:22:25.999Z,3.12
2023-01-29T02:25:26.784Z,2.98
2023-01-29T02:28:24.013Z,2.91
2023-01-29T02:31:00.755Z,2.92
2023-01-29T02:33:43.026Z,3.04
2023-01-29T02:36:21.066Z,3.05
2023-01-29T02:38:58.749Z,2.85
2023-01-29T02:41:30.329Z,3.11
2023-01-29T02:44:06.090Z,2.93
2023-01-29T02:46:39.195Z,3.06
2023-01-29T02:49:16.702Z,2.48
2023-01-29T02:51:49.909Z,3.01
2023-01-29T02:54:23.202Z,2.73
2023-01-29T02:56:57.439Z,2.87
2023-01-29T02:59:32.622Z,2.68
2023-01-29T03:02:06.626Z,2.65
2023-01-29T03:04:42.651Z,2.64
2023-01-29T03:07:36.688Z,2.67
2023-01-29T03:10:08.190Z,2.63
2023-01-29T03:12:39.486Z,2.78
2023-01-29T03:15:16.747Z,2.66
2023-01-29T03:17:52.120Z,2.60
2023-01-29T03:20:26.767Z,1.92
2023-01-29T03:23:01.496Z,2.34
2023-01-29T03:25:47.744Z,2.32
2023-01-29T03:28:36.983Z,2.20
2023-01-29T03:31:26.935Z,2.81
2023-01-29T03:34:01.771Z,3.02
2023-01-29T03:36:38.399Z,2.72
2023-01-29T03:39:07.666Z,2.67
2023-01-29T03:41:39.514Z,2.67
2023-01-29T03:44:16.594Z,2.93
2023-01-29T03:46:52.978Z,3.28
2023-01-29T03:49:31.104Z,3.33
2023-01-29T03:52:04.226Z,3.56
2023-01-29T03:54:39.940Z,3.46
2023-01-29T03:57:16.743Z,3.33
2023-01-29T03:59:54.957Z,3.75
2023-01-29T04:02:28.969Z,3.71
2023-01-29T04:05:03.380Z,3.55
2023-01-29T04:07:33.577Z,3.27
2023-01-29T04:10:06.896Z,3.47
2023-01-29T04:12:41.564Z,3.57
2023-01-29T04:15:15.464Z,3.61
2023-01-29T04:17:50.246Z,3.60
2023-01-29T04:20:19.415Z,3.51
2023-01-29T04:22:50.090Z,3.72
2023-01-29T04:25:26.834Z,3.49
2023-01-29T04:28:06.094Z,3.74
2023-01-29T04:30:43.245Z,3.79
2023-01-29T04:33:27.484Z,4.03
2023-01-29T04:36:19.340Z,3.83
2023-01-29T04:39:02.212Z,3.69
2023-01-29T04:41:35.477Z,3.57
2023-01-29T04:44:12.318Z,3.75
2023-01-29T04:46:48.850Z,3.97
2023-01-29T04:49:31.269Z,3.85
2023-01-29T04:52:06.682Z,4.07
2023-01-29T04:54:45.470Z,4.15
2023-01-29T04:57:19.754Z,3.94
2023-01-29T04:59:52.656Z,3.69
2023-01-29T05:02:24.321Z,3.80
2023-01-29T05:04:55.905Z,3.71
2023-01-29T05:07:25.857Z,3.90
2023-01-29T05:09:54.613Z,4.04
2023-01-29T05:12:26.856Z,4.16
2023-01-29T05:14:57.722Z,4.14
2023-01-29T05:17:26.103Z,4.12
2023-01-29T05:19:57.374Z,4.43
2023-01-29T05:22:26.675Z,4.53
2023-01-29T05:24:54.945Z,4.54
2023-01-29T05:27:48.333Z,4.13
2023-01-29T05:30:17.225Z,4.16
2023-01-29T05:32:45.648Z,4.34
2023-01-29T05:35:15.380Z,4.18
2023-01-29T05:37:43.785Z,3.60
2023-01-29T05:40:12.888Z,3.49
2023-01-29T05:42:41.136Z,3.21
2023-01-29T05:45:10.708Z,3.04
2023-01-29T05:47:39.067Z,3.18
2023-01-29T05:50:08.371Z,3.14
2023-01-29T05:52:38.046Z,3.18
2023-01-29T05:55:07.440Z,3.34
2023-01-29T05:57:35.758Z,2.99
2023-01-29T06:00:04.569Z,3.44
2023-01-29T06:02:32.999Z,3.24
2023-01-29T06:05:01.289Z,3.37
2023-01-29T06:07:29.495Z,2.66
2023-01-29T06:09:59.162Z,3.13
2023-01-29T06:12:28.194Z,3.24
2023-01-29T06:14:56.428Z,3.50
2023-01-29T06:17:24.787Z,3.74
2023-01-29T06:19:53.086Z,3.04
2023-01-29T06:22:21.310Z,3.76
2023-01-29T06:24:49.619Z,3.90
2023-01-29T06:27:19.342Z,3.42
2023-01-29T06:29:47.627Z,3.36
2023-01-29T06:32:16.086Z,3.79
2023-01-29T06:34:44.367Z,4.19
2023-01-29T06:37:12.720Z,3.71
2023-01-29T06:39:41.086Z,3.77
2023-01-29T06:42:10.177Z,3.44
2023-01-29T06:44:39.823Z,3.35
2023-01-29T06:47:08.091Z,3.19
2023-01-29T06:49:36.344Z,3.18
2023-01-29T06:52:04.693Z,3.55
2023-01-29T06:54:34.833Z,3.80
2023-01-29T06:57:03.075Z,3.60
2023-01-29T06:59:31.363Z,3.70
2023-01-29T07:02:00.983Z,3.78
2023-01-29T07:04:29.244Z,4.30
2023-01-29T07:06:57.494Z,4.19
2023-01-29T07:09:25.745Z,4.66
2023-01-29T07:11:53.981Z,4.17
2023-01-29T07:14:22.247Z,4.23
2023-01-29T07:16:50.573Z,4.16
2023-01-29T07:19:20.235Z,4.17
2023-01-29T07:21:48.534Z,4.31
2023-01-29T07:24:17.176Z,4.36
2023-01-29T07:26:45.481Z,4.08
2023-01-29T07:29:13.718Z,4.21
2023-01-29T07:31:42.116Z,4.45
2023-01-29T07:34:10.619Z,4.53
2023-01-29T07:36:40.376Z,4.54
2023-01-29T07:39:08.560Z,4.69
2023-01-29T07:41:36.810Z,4.68
2023-01-29T07:44:05.315Z,4.72
2023-01-29T07:46:33.604Z,4.57
2023-01-29T07:49:01.915Z,5.11
2023-01-29T07:51:30.212Z,4.57
2023-01-29T07:53:59.943Z,4.41
2023-01-29T07:56:28.196Z,4.85
2023-01-29T07:58:56.453Z,5.13
2023-01-29T08:01:24.766Z,5.48
2023-01-29T08:03:53.151Z,5.64
2023-01-29T08:06:21.377Z,5.19
2023-01-29T08:08:49.627Z,5.37
2023-01-29T08:11:19.256Z,5.30
2023-01-29T08:13:47.489Z,5.58
2023-01-29T08:16:15.827Z,5.02
2023-01-29T08:18:47.877Z,5.17
2023-01-29T08:21:16.582Z,5.41
2023-01-29T08:23:44.940Z,5.35
2023-01-29T08:26:13.256Z,5.31
2023-01-29T08:28:42.940Z,5.71
2023-01-29T08:31:16.104Z,5.61
2023-01-29T08:33:44.419Z,5.87
2023-01-29T08:36:12.692Z,6.13
2023-01-29T08:38:41.060Z,6.46
2023-01-29T08:41:09.556Z,6.85
2023-01-29T08:43:38.707Z,6.59
2023-01-29T08:46:09.185Z,7.07
2023-01-29T08:48:37.469Z,7.41
2023-01-29T08:51:06.217Z,7.29
2023-01-29T08:53:34.832Z,8.01
2023-01-29T08:56:03.439Z,8.77
2023-01-29T08:58:31.836Z,8.96
2023-01-29T09:01:09.468Z,8.95
2023-01-29T09:03:41.173Z,9.12
2023-01-29T09:06:12.265Z,9.61
2023-01-29T09:08:40.954Z,9.87
2023-01-29T09:11:09.557Z,9.83
2023-01-29T09:13:37.887Z,10.06
2023-01-29T09:16:06.860Z,10.14
2023-01-29T09:18:37.781Z,10.10
2023-01-29T09:21:06.661Z,9.43
2023-01-29T09:23:35.087Z,9.64
2023-01-29T09:26:03.523Z,9.70
2023-01-29T09:28:31.846Z,9.76
2023-01-29T09:31:02.743Z,10.00
2023-01-29T09:33:32.575Z,9.63
2023-01-29T09:36:04.491Z,9.11
2023-01-29T09:38:32.758Z,8.86
2023-01-29T09:41:07.908Z,8.78
2023-01-29T09:43:47.234Z,8.97
2023-01-29T09:46:22.367Z,8.38
2023-01-29T09:48:59.306Z,8.59
2023-01-29T09:51:33.493Z,8.40
2023-01-29T09:54:13.579Z,8.52
2023-01-29T09:56:43.759Z,8.44
2023-01-29T09:59:14.919Z,8.65
2023-01-29T10:01:51.933Z,8.85
2023-01-29T10:04:44.540Z,9.96
2023-01-29T10:07:41.609Z,10.39
2023-01-29T10:10:23.849Z,10.41
2023-01-29T10:13:04.720Z,10.82
2023-01-29T10:15:45.631Z,11.47
2023-01-29T10:18:47.386Z,11.20
2023-01-29T10:21:28.247Z,11.47
2023-01-29T10:24:08.324Z,10.51
2023-01-29T10:26:40.740Z,11.39
2023-01-29T10:29:12.942Z,11.87
2023-01-29T10:31:42.199Z,11.90
2023-01-29T10:34:18.428Z,11.52
2023-01-29T10:36:48.744Z,12.28
2023-01-29T10:39:19.807Z,13.78
2023-01-29T10:42:14.593Z,14.27
2023-01-29T10:45:01.853Z,15.85
2023-01-29T10:48:06.392Z,14.81
2023-01-29T10:50:49.017Z,14.22
2023-01-29T10:53:39.844Z,14.97
2023-01-29T10:56:26.428Z,14.26
2023-01-29T10:58:58.200Z,14.49
2023-01-29T11:01:27.092Z,14.63
2023-01-29T11:04:02.125Z,14.10
2023-01-29T11:06:33.235Z,13.00
2023-01-29T11:09:08.364Z,12.86
2023-01-29T11:11:45.284Z,12.69
2023-01-29T11:14:17.942Z,13.34
2023-01-29T11:16:49.727Z,13.07
2023-01-29T11:19:18.755Z,13.46
2023-01-29T11:21:58.088Z,12.59
2023-01-29T11:24:27.102Z,13.06
2023-01-29T11:26:59.997Z,11.18
2023-01-29T11:29:40.407Z,11.49
2023-01-29T11:32:13.183Z,12.40
2023-01-29T11:34:59.774Z,12.71
2023-01-29T11:37:34.539Z,13.90
2023-01-29T11:40:02.943Z,14.34
2023-01-29T11:42:34.341Z,14.41
2023-01-29T11:45:02.565Z,14.69
2023-01-29T11:47:31.929Z,14.67
2023-01-29T11:50:03.902Z,14.66
2023-01-29T11:52:38.948Z,15.83
2023-01-29T11:55:15.453Z,15.18
2023-01-29T11:57:50.488Z,15.42
2023-01-29T12:00:23.996Z,16.15
2023-01-29T12:02:56.942Z,15.05
2023-01-29T12:05:26.779Z,15.18
2023-01-29T12:07:57.904Z,15.16
2023-01-29T12:10:35.594Z,16.43
2023-01-29T12:13:22.418Z,16.28
2023-01-29T12:15:50.947Z,16.62
2023-01-29T12:18:28.090Z,14.74
2023-01-29T12:20:59.796Z,14.70
2023-01-29T12:23:37.591Z,14.20
2023-01-29T12:26:10.693Z,12.48
2023-01-29T12:28:50.669Z,13.72
2023-01-29T12:31:30.786Z,13.93
2023-01-29T12:34:06.370Z,14.28
2023-01-29T12:36:39.856Z,13.72
2023-01-29T12:39:10.626Z,13.70
2023-01-29T12:41:46.202Z,13.34
2023-01-29T12:44:20.481Z,12.08
2023-01-29T12:46:53.909Z,12.41
2023-01-29T12:49:26.474Z,10.55
2023-01-29T12:52:00.360Z,10.67
2023-01-29T12:54:36.863Z,11.05
2023-01-29T12:57:11.300Z,11.13
2023-01-29T12:59:45.558Z,10.38
2023-01-29T13:02:25.160Z,9.68
2023-01-29T13:05:00.715Z,10.53
2023-01-29T13:07:34.497Z,10.58
2023-01-29T13:10:11.722Z,11.22
2023-01-29T13:12:42.919Z,11.03
2023-01-29T13:15:24.107Z,9.72
2023-01-29T13:17:58.012Z,9.63
2023-01-29T13:20:30.657Z,9.98
2023-01-29T13:23:05.923Z,9.21
2023-01-29T13:25:35.471Z,8.92
2023-01-29T13:28:04.332Z,9.73
2023-01-29T13:30:38.840Z,10.00
2023-01-29T13:33:10.911Z,9.55
2023-01-29T13:35:43.178Z,9.57
2023-01-29T13:38:26.017Z,10.03
2023-01-29T13:40:57.853Z,9.88
2023-01-29T13:43:26.330Z,9.19
2023-01-29T13:45:56.496Z,9.37
2023-01-29T13:48:28.763Z,9.16
2023-01-29T13:51:01.508Z,8.94
2023-01-29T13:53:36.271Z,9.24
2023-01-29T13:56:51.742Z,9.14
2023-01-29T13:59:25.125Z,8.81
2023-01-29T14:02:20.049Z,9.24
2023-01-29T14:04:48.401Z,9.31
2023-01-29T14:07:51.596Z,9.20
2023-01-29T14:10:22.305Z,8.78
2023-01-29T14:12:53.417Z,8.86
2023-01-29T14:15:34.668Z,8.73
2023-01-29T14:18:20.283Z,9.33
2023-01-29T14:21:22.164Z,9.69
2023-01-29T14:23:52.431Z,9.38
2023-01-29T14:26:25.500Z,9.53
2023-01-29T14:28:57.852Z,9.40
2023-01-29T14:31:43.001Z,9.38
2023-01-29T14:34:22.074Z,9.46
2023-01-29T14:36:55.569Z,9.36
2023-01-29T14:39:30.893Z,9.06
2023-01-29T14:42:00.632Z,9.28
2023-01-29T14:45:05.309Z,8.83
2023-01-29T14:48:13.487Z,8.69
2023-01-29T14:50:49.578Z,8.66
2023-01-29T14:53:34.266Z,7.79
2023-01-29T14:56:05.664Z,8.13
2023-01-29T14:58:40.669Z,8.16
2023-01-29T15:01:19.741Z,7.97
2023-01-29T15:03:50.191Z,8.15
2023-01-29T15:06:25.790Z,8.14
2023-01-29T15:09:02.439Z,7.84
2023-01-29T15:11:37.143Z,7.71
2023-01-29T15:14:25.929Z,7.83
2023-01-29T15:17:03.259Z,7.97
2023-01-29T15:19:36.969Z,7.65
2023-01-29T15:22:12.899Z,7.72
2023-01-29T15:24:42.985Z,7.65
2023-01-29T15:27:15.827Z,7.80
2023-01-29T15:29:48.753Z,7.31
2023-01-29T15:32:30.571Z,7.24
2023-01-29T15:35:00.575Z,7.08
2023-01-29T15:37:33.537Z,7.07
2023-01-29T15:40:03.784Z,6.89
2023-01-29T15:42:46.410Z,6.99
2023-01-29T15:45:26.010Z,6.98
2023-01-29T15:47:56.714Z,6.88
2023-01-29T15:50:25.502Z,6.64
2023-01-29T15:52:56.324Z,7.08
2023-01-29T15:55:25.669Z,6.92
2023-01-29T15:57:54.741Z,7.14
2023-01-29T16:00:27.871Z,6.91
2023-01-29T16:02:57.007Z,6.49
2023-01-29T16:05:29.040Z,7.00
2023-01-29T16:08:00.629Z,6.89
2023-01-29T16:10:31.639Z,6.71
2023-01-29T16:13:01.391Z,6.61
2023-01-29T16:15:34.436Z,6.76
2023-01-29T16:18:05.271Z,6.86
2023-01-29T16:20:37.877Z,6.87
2023-01-29T16:23:10.188Z,6.39
2023-01-29T16:25:40.523Z,6.70
2023-01-29T16:28:11.222Z,6.88
2023-01-29T16:30:40.481Z,7.17
2023-01-29T16:33:14.537Z,7.01
2023-01-29T16:35:51.900Z,7.07
2023-01-29T16:38:33.940Z,6.60
2023-01-29T16:41:15.406Z,6.79
2023-01-29T16:43:53.336Z,6.67
2023-01-29T16:46:26.447Z,6.75
2023-01-29T16:48:55.690Z,6.60
2023-01-29T16:51:27.293Z,6.71
2023-01-29T16:54:16.464Z,6.79
2023-01-29T16:56:46.676Z,5.89
2023-01-29T16:59:20.433Z,6.42
2023-01-29T17:01:56.660Z,5.53
2023-01-29T17:04:25.821Z,6.31
2023-01-29T17:06:58.616Z,6.27
2023-01-29T17:09:31.351Z,6.56
2023-01-29T17:12:02.935Z,6.50
2023-01-29T17:14:32.584Z,5.98
2023-01-29T17:17:05.714Z,6.71
2023-01-29T17:19:34.700Z,6.66
2023-01-29T17:22:05.728Z,6.58
2023-01-29T17:24:36.141Z,6.29
2023-01-29T17:27:04.742Z,6.55
2023-01-29T17:29:33.444Z,6.24
2023-01-29T17:32:01.809Z,6.14
2023-01-29T17:34:30.578Z,6.39
2023-01-29T17:37:02.201Z,5.77
2023-01-29T17:39:31.107Z,6.52
2023-01-29T17:42:02.059Z,6.44
2023-01-29T17:44:30.952Z,6.69
2023-01-29T17:47:00.295Z,5.98
2023-01-29T17:49:32.597Z,6.37
2023-01-29T17:52:01.141Z,6.62
2023-01-29T17:54:29.416Z,6.07
2023-01-29T17:56:58.433Z,6.25
2023-01-29T17:59:34.453Z,6.39
2023-01-29T18:02:02.816Z,6.45
2023-01-29T18:04:34.675Z,6.83
2023-01-29T18:07:03.118Z,6.51
2023-01-29T18:09:31.550Z,6.45
2023-01-29T18:12:02.510Z,6.61
2023-01-29T18:14:32.510Z,6.81
2023-01-29T18:17:00.838Z,6.77
2023-01-29T18:19:31.280Z,6.57
2023-01-29T18:21:59.761Z,6.38
2023-01-29T18:24:28.113Z,6.33
2023-01-29T18:26:56.348Z,6.73
2023-01-29T18:29:29.841Z,7.01
2023-01-29T18:32:05.701Z,6.62
2023-01-29T18:34:34.550Z,6.52
2023-01-29T18:37:04.535Z,6.50
2023-01-29T18:39:33.065Z,6.93
2023-01-29T18:42:01.624Z,6.93
2023-01-29T18:44:30.977Z,7.02
2023-01-29T18:47:01.056Z,6.42
2023-01-29T18:49:29.666Z,6.80
2023-01-29T18:51:58.879Z,6.43
2023-01-29T18:54:27.877Z,6.81
2023-01-29T18:57:11.552Z,6.66
2023-01-29T18:59:43.111Z,6.60
2023-01-29T19:02:19.471Z,6.63
2023-01-29T19:04:48.062Z,6.60
2023-01-29T19:07:20.173Z,6.70
2023-01-29T19:09:50.870Z,6.44
2023-01-29T19:12:22.740Z,6.57
2023-01-29T19:14:51.561Z,6.16
2023-01-29T19:17:21.689Z,6.11
2023-01-29T19:19:51.245Z,6.30
2023-01-29T19:22:25.216Z,6.04
2023-01-29T19:24:56.647Z,5.91
2023-01-29T19:27:26.517Z,5.65
2023-01-29T19:30:18.993Z,6.01
2023-01-29T19:32:59.389Z,6.20
2023-01-29T19:35:27.610Z,6.06
2023-01-29T19:37:56.257Z,6.34
2023-01-29T19:40:25.235Z,6.23
2023-01-29T19:42:56.349Z,6.00
2023-01-29T19:45:37.340Z,5.92
2023-01-29T19:48:17.145Z,5.61
2023-01-29T19:50:52.172Z,5.47
2023-01-29T19:53:21.573Z,5.68
2023-01-29T19:55:57.664Z,5.47
2023-01-29T19:58:26.331Z,5.22
2023-01-29T20:00:59.058Z,5.76
2023-01-29T20:03:31.394Z,6.03
2023-01-29T20:06:04.095Z,5.76
2023-01-29T20:08:33.321Z,5.95
2023-01-29T20:11:01.576Z,5.84
2023-01-29T20:13:31.131Z,5.71
2023-01-29T20:16:03.122Z,5.73
2023-01-29T20:18:33.434Z,5.26
2023-01-29T20:21:08.094Z,5.63
2023-01-29T20:23:38.609Z,5.30
2023-01-29T20:26:08.000Z,5.38
2023-01-29T20:28:36.986Z,5.28
2023-01-29T20:31:06.791Z,4.90
2023-01-29T20:33:39.347Z,5.04
2023-01-29T20:36:10.669Z,5.27
2023-01-29T20:38:39.329Z,5.36
2023-01-29T20:41:09.650Z,5.40
2023-01-29T20:43:40.803Z,5.66
2023-01-29T20:46:09.369Z,5.63
2023-01-29T20:48:39.248Z,5.55
2023-01-29T20:51:09.496Z,5.08
2023-01-29T20:53:38.730Z,5.07
2023-01-29T20:56:11.183Z,5.18
2023-01-29T20:58:41.048Z,5.59
2023-01-29T21:01:10.267Z,5.59
2023-01-29T21:03:40.486Z,5.66
2023-01-29T21:06:15.693Z,5.75
2023-01-29T21:08:44.152Z,5.44
2023-01-29T21:11:12.797Z,5.00
2023-01-29T21:13:41.357Z,5.30
2023-01-29T21:16:11.460Z,5.44
2023-01-29T21:18:41.410Z,5.43
2023-01-29T21:21:09.766Z,5.61
2023-01-29T21:23:38.096Z,5.63
2023-01-29T21:26:07.473Z,5.74
2023-01-29T21:28:36.257Z,5.76
2023-01-29T21:31:06.038Z,5.61
2023-01-29T21:33:35.094Z,5.82
2023-01-29T21:36:05.243Z,5.97
2023-01-29T21:38:34.108Z,5.74
2023-01-29T21:41:07.482Z,5.47
2023-01-29T21:43:35.281Z,5.77
2023-01-29T21:46:06.119Z,5.85
2023-01-29T21:48:34.480Z,6.00
2023-01-29T21:51:04.234Z,5.66
2023-01-29T21:53:32.461Z,5.78
2023-01-29T21:56:01.603Z,5.94
2023-01-29T21:58:30.105Z,5.80
2023-01-29T22:01:11.435Z,5.68
2023-01-29T22:03:47.494Z,5.41
2023-01-29T22:06:17.409Z,5.40
2023-01-29T22:08:45.745Z,5.31
2023-01-29T22:11:14.179Z,5.34
2023-01-29T22:13:42.498Z,5.46
2023-01-29T22:16:10.785Z,5.27
2023-01-29T22:18:39.052Z,5.35
2023-01-29T22:21:07.451Z,5.64
2023-01-29T22:23:37.076Z,5.88
2023-01-29T22:26:06.536Z,5.76
2023-01-29T22:28:34.816Z,5.97
2023-01-29T22:31:03.384Z,6.01
2023-01-29T22:33:31.884Z,5.84
2023-01-29T22:36:00.321Z,5.75
2023-01-29T22:38:30.054Z,5.48
2023-01-29T22:41:01.675Z,5.04
2023-01-29T22:43:30.431Z,5.23
2023-01-29T22:45:58.755Z,5.23
2023-01-29T22:48:28.732Z,5.69
2023-01-29T22:51:10.047Z,5.41
2023-01-29T22:53:39.071Z,5.48
2023-01-29T22:56:09.546Z,5.48
2023-01-29T22:58:38.137Z,5.32
2023-01-29T23:01:06.627Z,5.90
2023-01-29T23:03:35.397Z,5.58
2023-01-29T23:06:04.543Z,5.52
2023-01-29T23:08:34.032Z,5.41
2023-01-29T23:11:14.519Z,5.51
2023-01-29T23:13:46.346Z,4.41
2023-01-29T23:16:15.837Z,4.85
2023-01-29T23:18:44.970Z,4.95
2023-01-29T23:21:13.598Z,4.91
2023-01-29T23:23:44.695Z,5.28
2023-01-29T23:26:31.352Z,4.62
2023-01-29T23:29:01.500Z,5.21
2023-01-29T23:31:29.896Z,5.32
2023-01-29T23:33:58.295Z,5.36
2023-01-29T23:36:26.672Z,5.49
2023-01-29T23:38:54.981Z,5.19
2023-01-29T23:41:23.284Z,5.17
2023-01-29T23:43:51.516Z,5.50
2023-01-29T23:46:21.222Z,4.93
2023-01-29T23:48:49.502Z,4.65
2023-01-29T23:51:17.845Z,4.61
2023-01-29T23:53:46.190Z,4.49
2023-01-29T23:56:14.409Z,4.81
2023-01-29T23:58:42.783Z,5.09
